Time;durP1;ratioP1;P1;durP2;ratioP2;P2;SDS_P1;SDS_P2;PMS_P1;PMS_P2;Temp;Humidity;BMP_temperature;BMP_pressure;BME280_temperature;BME280_humidity;BME280_pressure;Samples;Min_cycle;Max_cycle;Signal;HPM_P1;HPM_P2
2022/04/05 00:01:51;;;;;;;10.30;4.90;;;;;;;;;;5016480;28;90194;-74
2022/04/05 00:04:17;;;;;;;12.90;5.05;;;;;;;;;;5015609;28;89529;-74
2022/04/05 00:06:44;;;;;;;10.73;4.05;;;;;;;;;;5017215;28;90726;-75
2022/04/05 00:09:10;;;;;;;6.72;3.75;;;;;;;;;;5015020;28;88890;-75
2022/04/05 00:11:37;;;;;;;6.63;3.40;;;;;;;;;;5009471;28;88844;-75
2022/04/05 00:14:03;;;;;;;12.02;4.30;;;;;;;;;;5002079;28;90453;-75
2022/04/05 00:16:29;;;;;;;6.95;3.70;;;;;;;;;;5018581;28;89696;-75
2022/04/05 00:18:56;;;;;;;9.77;3.45;;;;;;;;;;5014869;28;89419;-74
2022/04/05 00:21:22;;;;;;;5.47;3.25;;;;;;;;;;5016062;28;89982;-75
2022/04/05 00:23:48;;;;;;;2.83;2.63;;;;;;;;;;5014130;28;88786;-74
2022/04/05 00:26:15;;;;;;;7.63;3.20;;;;;;;;;;5016237;28;89571;-74
2022/04/05 00:28:41;;;;;;;6.47;3.60;;;;;;;;;;5014558;28;89482;-74
2022/04/05 00:31:08;;;;;;;8.52;3.10;;;;;;;;;;5016461;28;87905;-74
2022/04/05 00:33:34;;;;;;;8.70;3.22;;;;;;;;;;5013696;28;88438;-74
2022/04/05 00:36:00;;;;;;;5.82;3.33;;;;;;;;;;5010577;28;89539;-74
2022/04/05 00:38:27;;;;;;;5.45;2.97;;;;;;;;;;5018893;28;88475;-74
2022/04/05 00:40:53;;;;;;;5.35;3.33;;;;;;;;;;5015499;28;90564;-74
2022/04/05 00:43:20;;;;;;;12.85;3.25;;;;;;;;;;5011493;28;88260;-74
2022/04/05 00:45:47;;;;;;;2.60;2.40;;;;;;;;;;4996164;28;88635;-74
2022/04/05 00:48:22;;;;;;;6.88;2.30;;;;;;;;;;5005341;28;90070;-74
2022/04/05 00:50:48;;;;;;;5.95;2.83;;;;;;;;;;4995222;28;88927;-74
2022/04/05 00:53:15;;;;;;;4.72;2.50;;;;;;;;;;5013352;28;89534;-74
2022/04/05 00:55:42;;;;;;;4.15;2.13;;;;;;;;;;5015649;28;90022;-74
2022/04/05 00:58:10;;;;;;;7.28;2.38;;;;;;;;;;5013918;28;88816;-74
2022/04/05 01:00:39;;;;;;;3.45;2.05;;;;;;;;;;5018015;28;89552;-73
2022/04/05 01:03:06;;;;;;;4.38;2.17;;;;;;;;;;5014434;28;88987;-74
2022/04/05 01:05:34;;;;;;;3.97;2.17;;;;;;;;;;5014380;28;89453;-73
2022/04/05 01:08:02;;;;;;;5.65;2.95;;;;;;;;;;5014201;28;89881;-73
2022/04/05 01:10:29;;;;;;;2.55;2.35;;;;;;;;;;5012825;28;89835;-73
2022/04/05 01:12:56;;;;;;;4.32;2.42;;;;;;;;;;5004135;28;88835;-74
2022/04/05 01:15:22;;;;;;;4.60;2.33;;;;;;;;;;5014396;28;90240;-73
2022/04/05 01:17:50;;;;;;;4.97;2.70;;;;;;;;;;5014297;28;89071;-72
2022/04/05 01:20:16;;;;;;;7.20;2.50;;;;;;;;;;5015833;28;88849;-72
2022/04/05 01:22:48;;;;;;;3.08;2.55;;;;;;;;;;5015660;28;90055;-73
2022/04/05 01:25:15;;;;;;;;;;;;;;;;;;5015223;28;89510;-72
2022/04/05 01:27:41;;;;;;;5.30;2.20;;;;;;;;;;5017473;28;119438;-72
2022/04/05 01:30:08;;;;;;;4.55;2.60;;;;;;;;;;5019325;28;88025;-73
2022/04/05 01:32:35;;;;;;;6.43;2.63;;;;;;;;;;5016595;28;88989;-72
2022/04/05 01:35:01;;;;;;;5.15;2.60;;;;;;;;;;5017676;28;90708;-73
2022/04/05 01:37:28;;;;;;;3.75;2.60;;;;;;;;;;5018581;28;88721;-73
2022/04/05 01:39:54;;;;;;;4.22;2.10;;;;;;;;;;5016086;28;90342;-73
2022/04/05 01:42:20;;;;;;;4.72;2.58;;;;;;;;;;5020777;28;88572;-73
2022/04/05 01:44:47;;;;;;;5.68;2.42;;;;;;;;;;5017471;28;88819;-72
2022/04/05 01:47:14;;;;;;;6.20;2.80;;;;;;;;;;5011434;28;90106;-72
2022/04/05 01:49:42;;;;;;;5.50;2.80;;;;;;;;;;4997222;28;89993;-72
2022/04/05 01:52:09;;;;;;;7.35;2.90;;;;;;;;;;4999045;28;89181;-73
2022/04/05 01:54:36;;;;;;;6.03;3.78;;;;;;;;;;5017722;28;90789;-73
2022/04/05 01:57:03;;;;;;;7.40;2.80;;;;;;;;;;5017086;28;88750;-73
2022/04/05 01:59:30;;;;;;;5.03;2.25;;;;;;;;;;5018301;28;89386;-73
2022/04/05 02:01:57;;;;;;;3.40;2.50;;;;;;;;;;5014998;28;89594;-73
2022/04/05 02:04:23;;;;;;;5.40;2.92;;;;;;;;;;5019022;28;88071;-73
2022/04/05 02:06:50;;;;;;;3.58;2.30;;;;;;;;;;5018951;28;89048;-73
2022/04/05 02:09:17;;;;;;;4.13;2.63;;;;;;;;;;5013370;28;88688;-73
2022/04/05 02:11:44;;;;;;;6.70;2.65;;;;;;;;;;5001887;28;90992;-73
2022/04/05 02:14:40;;;;;;;2.58;2.40;;;;;;;;;;4961459;28;89693;-73
2022/04/05 02:17:11;;;;;;;8.43;2.70;;;;;;;;;;5015779;28;88566;-73
2022/04/05 02:19:40;;;;;;;3.45;2.83;;;;;;;;;;5016677;28;88537;-73
2022/04/05 02:22:08;;;;;;;6.15;2.70;;;;;;;;;;5014625;28;90146;-75
2022/04/05 02:24:36;;;;;;;5.78;3.22;;;;;;;;;;4998973;28;89855;-74
2022/04/05 02:27:04;;;;;;;4.28;2.78;;;;;;;;;;5006355;28;89797;-73
2022/04/05 02:29:32;;;;;;;10.15;4.60;;;;;;;;;;5015701;28;90048;-73
2022/04/05 02:32:05;;;;;;;6.20;2.97;;;;;;;;;;5015903;28;90747;-73
2022/04/05 02:34:32;;;;;;;6.18;3.50;;;;;;;;;;5016543;28;91241;-73
2022/04/05 02:37:01;;;;;;;6.70;3.70;;;;;;;;;;5014304;28;90385;-72
2022/04/05 02:39:27;;;;;;;6.20;3.33;;;;;;;;;;5017626;28;88734;-73
2022/04/05 02:41:58;;;;;;;3.60;3.30;;;;;;;;;;5015308;28;90999;-73
2022/04/05 02:44:25;;;;;;;7.63;4.10;;;;;;;;;;5015884;28;90460;-73
2022/04/05 02:46:58;;;;;;;4.40;3.75;;;;;;;;;;5009227;28;90728;-73
2022/04/05 02:49:28;;;;;;;8.40;4.32;;;;;;;;;;5016688;28;91551;-72
2022/04/05 02:51:55;;;;;;;5.80;3.90;;;;;;;;;;5004288;28;90499;-72
2022/04/05 02:54:29;;;;;;;3.97;3.65;;;;;;;;;;5015973;28;91017;-73
2022/04/05 02:56:58;;;;;;;3.85;3.20;;;;;;;;;;5014870;28;90034;-72
2022/04/05 02:59:25;;;;;;;7.82;3.40;;;;;;;;;;5014678;28;89241;-73
2022/04/05 03:01:52;;;;;;;6.47;3.90;;;;;;;;;;5016342;28;88644;-73
2022/04/05 03:04:20;;;;;;;5.53;3.78;;;;;;;;;;5009572;28;88876;-73
2022/04/05 03:06:49;;;;;;;3.15;2.90;;;;;;;;;;5012859;28;92256;-73
2022/04/05 03:09:16;;;;;;;7.97;4.07;;;;;;;;;;4998167;28;89665;-73
2022/04/05 03:11:43;;;;;;;6.65;4.00;;;;;;;;;;5012316;28;88438;-73
2022/04/05 03:14:14;;;;;;;5.47;3.92;;;;;;;;;;5014406;28;90447;-73
2022/04/05 03:16:40;;;;;;;4.90;4.25;;;;;;;;;;5017344;28;88633;-73
2022/04/05 03:19:13;;;;;;;;;;;;;;;;;;5014577;28;91207;-73
2022/04/05 03:21:40;;;;;;;6.72;3.92;;;;;;;;;;5046253;27;90175;-73
2022/04/05 03:24:06;;;;;;;7.68;4.60;;;;;;;;;;4997075;28;88802;-73
2022/04/05 03:26:33;;;;;;;10.68;5.30;;;;;;;;;;5016361;28;89179;-73
2022/04/05 03:28:59;;;;;;;7.30;4.88;;;;;;;;;;5015275;28;90324;-73
2022/04/05 03:31:26;;;;;;;6.97;6.28;;;;;;;;;;5011824;28;88666;-73
2022/04/05 03:33:55;;;;;;;11.82;6.03;;;;;;;;;;5018809;28;87971;-74
2022/04/05 03:36:23;;;;;;;12.48;6.80;;;;;;;;;;5014826;28;90418;-73
2022/04/05 03:38:50;;;;;;;13.20;7.68;;;;;;;;;;5014953;28;90047;-73
2022/04/05 03:41:17;;;;;;;13.27;9.10;;;;;;;;;;5015165;28;90810;-73
2022/04/05 03:43:44;;;;;;;14.75;7.95;;;;;;;;;;4991933;28;88827;-72
2022/04/05 03:46:16;;;;;;;23.53;9.97;;;;;;;;;;4995583;28;90919;-73
2022/04/05 03:48:45;;;;;;;11.10;8.77;;;;;;;;;;5009234;28;89698;-73
2022/04/05 03:51:15;;;;;;;15.65;10.32;;;;;;;;;;4979001;28;91041;-73
2022/04/05 03:53:54;;;;;;;17.95;10.88;;;;;;;;;;4976979;28;91104;-73
2022/04/05 03:56:21;;;;;;;18.55;11.88;;;;;;;;;;4990934;28;92438;-73
2022/04/05 03:58:51;;;;;;;24.73;14.18;;;;;;;;;;5031139;28;90133;-72
2022/04/05 04:01:18;;;;;;;25.60;14.25;;;;;;;;;;5013459;28;89865;-73
2022/04/05 04:03:45;;;;;;;29.92;15.80;;;;;;;;;;5012457;28;92232;-73
2022/04/05 04:06:12;;;;;;;34.80;15.88;;;;;;;;;;5014491;28;91700;-73
2022/04/05 04:08:39;;;;;;;30.58;14.95;;;;;;;;;;5007732;28;89122;-73
2022/04/05 04:11:06;;;;;;;34.45;15.80;;;;;;;;;;4994473;28;92599;-73
2022/04/05 04:13:33;;;;;;;31.40;14.23;;;;;;;;;;5010447;28;91473;-73
2022/04/05 04:16:04;;;;;;;25.52;12.93;;;;;;;;;;5017110;28;91611;-73
2022/04/05 04:18:33;;;;;;;25.58;14.05;;;;;;;;;;5012271;28;90199;-73
2022/04/05 04:21:01;;;;;;;24.10;13.48;;;;;;;;;;5013609;28;91554;-73
2022/04/05 04:23:27;;;;;;;23.33;12.57;;;;;;;;;;5012561;28;93035;-73
2022/04/05 04:25:56;;;;;;;22.33;12.52;;;;;;;;;;5033976;27;92314;-73
2022/04/05 04:28:22;;;;;;;28.40;12.90;;;;;;;;;;4992734;28;90967;-73
2022/04/05 04:30:49;;;;;;;26.05;12.73;;;;;;;;;;5002743;28;91241;-73
2022/04/05 04:33:15;;;;;;;24.63;12.27;;;;;;;;;;5013110;28;89201;-73
2022/04/05 04:35:42;;;;;;;25.10;12.02;;;;;;;;;;5013141;28;90247;-73
2022/04/05 04:38:09;;;;;;;20.15;11.18;;;;;;;;;;5018498;28;91184;-72
2022/04/05 04:40:36;;;;;;;16.35;9.45;;;;;;;;;;5005613;28;89038;-72
2022/04/05 04:43:02;;;;;;;26.95;11.70;;;;;;;;;;5009831;28;90952;-72
2022/04/05 04:45:31;;;;;;;30.63;10.30;;;;;;;;;;4999988;28;89496;-72
2022/04/05 04:47:57;;;;;;;25.58;10.68;;;;;;;;;;5015099;28;89782;-72
2022/04/05 04:50:24;;;;;;;29.23;11.88;;;;;;;;;;5008467;28;90854;-72
2022/04/05 04:52:50;;;;;;;26.27;13.07;;;;;;;;;;5013459;28;90362;-72
2022/04/05 04:55:16;;;;;;;32.55;12.93;;;;;;;;;;5013544;28;90420;-72
2022/04/05 04:57:43;;;;;;;30.10;13.80;;;;;;;;;;5013868;28;89318;-72
2022/04/05 05:00:11;;;;;;;25.00;13.27;;;;;;;;;;5016190;28;89732;-73
2022/04/05 05:02:47;;;;;;;31.30;14.32;;;;;;;;;;5013005;28;90939;-72
2022/04/05 05:05:20;;;;;;;33.95;16.50;;;;;;;;;;5011906;28;90710;-73
2022/04/05 05:07:49;;;;;;;37.90;16.30;;;;;;;;;;5014108;28;90012;-73
2022/04/05 05:10:16;;;;;;;31.15;16.35;;;;;;;;;;4996413;28;91396;-73
2022/04/05 05:12:43;;;;;;;31.88;15.50;;;;;;;;;;5013117;28;89236;-72
2022/04/05 05:15:10;;;;;;;30.75;14.75;;;;;;;;;;5013102;28;89300;-72
2022/04/05 05:17:36;;;;;;;43.35;18.88;;;;;;;;;;4975272;28;90071;-73
2022/04/05 05:20:03;;;;;;;36.08;16.38;;;;;;;;;;4992936;28;90448;-73
2022/04/05 05:22:30;;;;;;;30.80;16.17;;;;;;;;;;5015374;28;89136;-73
2022/04/05 05:24:56;;;;;;;33.15;15.80;;;;;;;;;;5011630;28;89409;-73
2022/04/05 05:27:22;;;;;;;32.13;17.00;;;;;;;;;;4994043;28;89807;-72
2022/04/05 05:29:49;;;;;;;37.58;18.45;;;;;;;;;;5000119;28;91131;-72
2022/04/05 05:32:15;;;;;;;32.58;18.33;;;;;;;;;;5012317;28;89949;-73
2022/04/05 05:34:42;;;;;;;39.40;19.67;;;;;;;;;;5012890;28;90122;-73
2022/04/05 05:37:11;;;;;;;38.67;19.65;;;;;;;;;;5014479;28;91071;-73
2022/04/05 05:39:37;;;;;;;33.80;20.33;;;;;;;;;;5012006;28;90374;-73
2022/04/05 05:42:04;;;;;;;41.17;20.52;;;;;;;;;;5011914;28;89923;-73
2022/04/05 05:44:30;;;;;;;35.42;19.40;;;;;;;;;;4997490;28;89179;-73
2022/04/05 05:46:57;;;;;;;33.28;19.90;;;;;;;;;;5011404;28;88960;-73
2022/04/05 05:49:23;;;;;;;33.80;20.17;;;;;;;;;;5005804;28;91004;-73
2022/04/05 05:51:49;;;;;;;31.17;19.45;;;;;;;;;;4998800;28;90596;-73
2022/04/05 05:54:16;;;;;;;27.65;15.85;;;;;;;;;;5013733;28;89801;-73
2022/04/05 05:56:42;;;;;;;41.92;20.13;;;;;;;;;;5012289;28;91002;-73
2022/04/05 05:59:09;;;;;;;27.77;18.65;;;;;;;;;;5013400;28;90363;-73
2022/04/05 06:01:35;;;;;;;31.15;19.23;;;;;;;;;;5012555;28;89856;-73
2022/04/05 06:04:02;;;;;;;20.35;13.00;;;;;;;;;;5016348;28;90947;-73
2022/04/05 06:06:29;;;;;;;30.02;17.00;;;;;;;;;;5011738;28;89894;-73
2022/04/05 06:08:55;;;;;;;24.17;16.40;;;;;;;;;;4995536;28;89913;-73
2022/04/05 06:11:22;;;;;;;30.50;17.83;;;;;;;;;;4994278;28;90513;-73
2022/04/05 06:13:51;;;;;;;35.80;18.85;;;;;;;;;;5017098;28;89337;-73
2022/04/05 06:16:21;;;;;;;30.90;17.08;;;;;;;;;;5015453;28;90939;-73
2022/04/05 06:18:47;;;;;;;18.52;12.40;;;;;;;;;;5017555;28;90290;-74
2022/04/05 06:21:14;;;;;;;29.38;15.70;;;;;;;;;;5013207;28;90776;-74
2022/04/05 06:23:41;;;;;;;28.10;14.98;;;;;;;;;;5017013;28;92052;-74
2022/04/05 06:26:07;;;;;;;27.85;15.27;;;;;;;;;;5011782;28;90774;-74
2022/04/05 06:28:33;;;;;;;21.90;14.20;;;;;;;;;;4996308;28;90913;-74
2022/04/05 06:31:00;;;;;;;25.20;13.95;;;;;;;;;;5011184;28;89909;-74
2022/04/05 06:33:26;;;;;;;23.35;13.13;;;;;;;;;;5017111;28;89845;-74
2022/04/05 06:35:54;;;;;;;25.55;12.82;;;;;;;;;;5006069;28;91270;-73
2022/04/05 06:38:20;;;;;;;27.83;12.73;;;;;;;;;;4999787;28;89251;-73
2022/04/05 06:40:47;;;;;;;25.02;11.32;;;;;;;;;;4997782;28;90314;-73
2022/04/05 06:43:14;;;;;;;22.20;12.35;;;;;;;;;;5005156;28;91041;-73
2022/04/05 06:45:41;;;;;;;28.00;12.32;;;;;;;;;;4997887;28;89275;-71
2022/04/05 06:48:09;;;;;;;20.95;10.57;;;;;;;;;;5018959;28;89168;-73
2022/04/05 06:50:36;;;;;;;17.08;10.45;;;;;;;;;;4990530;28;90430;-73
2022/04/05 06:53:03;;;;;;;21.20;12.32;;;;;;;;;;4989308;28;90245;-73
2022/04/05 06:55:29;;;;;;;21.15;10.63;;;;;;;;;;4989498;28;90981;-71
2022/04/05 06:57:56;;;;;;;16.38;10.88;;;;;;;;;;4994891;28;90811;-71
2022/04/05 07:00:23;;;;;;;24.98;10.40;;;;;;;;;;4996032;28;89890;-73
2022/04/05 07:02:51;;;;;;;19.92;9.32;;;;;;;;;;4996374;28;90780;-72
2022/04/05 07:05:18;;;;;;;19.60;10.27;;;;;;;;;;4994275;28;88823;-72
2022/04/05 07:07:45;;;;;;;20.52;9.77;;;;;;;;;;4995959;28;89406;-72
2022/04/05 07:10:12;;;;;;;18.75;9.85;;;;;;;;;;4999288;28;90259;-72
2022/04/05 07:12:39;;;;;;;18.90;9.82;;;;;;;;;;4994049;28;89215;-72
2022/04/05 07:15:05;;;;;;;11.13;8.27;;;;;;;;;;4990170;28;88764;-72
2022/04/05 07:17:32;;;;;;;14.27;8.60;;;;;;;;;;4976649;28;89654;-72
2022/04/05 07:20:18;;;;;;;15.82;6.88;;;;;;;;;;4977211;28;89632;-72
2022/04/05 07:22:48;;;;;;;14.05;7.25;;;;;;;;;;4976970;28;88805;-72
2022/04/05 07:25:21;;;;;;;18.80;8.18;;;;;;;;;;4994040;28;89593;-71
2022/04/05 07:27:48;;;;;;;23.08;8.85;;;;;;;;;;4997701;28;89272;-71
2022/04/05 07:30:15;;;;;;;20.00;8.75;;;;;;;;;;4996963;28;88824;-72
2022/04/05 07:32:42;;;;;;;19.48;9.90;;;;;;;;;;4999088;28;89702;-72
2022/04/05 07:35:09;;;;;;;22.08;9.23;;;;;;;;;;4996717;28;89161;-72
2022/04/05 07:37:36;;;;;;;13.43;8.07;;;;;;;;;;4996255;28;89233;-72
2022/04/05 07:40:05;;;;;;;10.93;8.07;;;;;;;;;;4996635;28;89745;-72
2022/04/05 07:42:32;;;;;;;15.90;7.35;;;;;;;;;;4996717;28;88733;-72
2022/04/05 07:44:58;;;;;;;16.70;8.10;;;;;;;;;;4996266;28;89406;-72
2022/04/05 07:47:25;;;;;;;17.40;7.95;;;;;;;;;;4995941;28;89651;-73
2022/04/05 07:49:51;;;;;;;12.65;6.28;;;;;;;;;;5004446;28;88835;-73
2022/04/05 07:52:17;;;;;;;13.52;7.45;;;;;;;;;;5009422;28;88595;-74
2022/04/05 07:54:44;;;;;;;15.85;8.13;;;;;;;;;;5016445;28;89163;-74
2022/04/05 07:57:10;;;;;;;18.80;8.10;;;;;;;;;;5010706;28;88489;-74
2022/04/05 07:59:37;;;;;;;12.25;7.07;;;;;;;;;;5013558;28;89942;-74
2022/04/05 08:02:03;;;;;;;13.13;7.47;;;;;;;;;;5016548;28;88093;-74
2022/04/05 08:04:49;;;;;;;18.20;8.10;;;;;;;;;;5010285;28;89484;-74
2022/04/05 08:07:16;;;;;;;13.65;7.38;;;;;;;;;;5000105;28;89136;-74
2022/04/05 08:09:42;;;;;;;11.98;6.80;;;;;;;;;;5004506;28;89032;-74
2022/04/05 08:12:09;;;;;;;12.65;6.68;;;;;;;;;;5014131;28;89550;-74
2022/04/05 08:14:35;;;;;;;15.32;7.95;;;;;;;;;;5015744;28;90144;-74
2022/04/05 08:17:01;;;;;;;14.18;7.40;;;;;;;;;;5016990;28;88556;-74
2022/04/05 08:19:28;;;;;;;12.00;7.00;;;;;;;;;;5014141;28;89436;-74
2022/04/05 08:21:54;;;;;;;18.77;8.77;;;;;;;;;;5015608;28;88059;-74
2022/04/05 08:24:21;;;;;;;16.42;6.70;;;;;;;;;;5014455;28;88758;-74
2022/04/05 08:26:48;;;;;;;16.58;6.10;;;;;;;;;;5009515;28;89023;-74
2022/04/05 08:29:14;;;;;;;13.63;6.80;;;;;;;;;;4998440;28;89584;-74
2022/04/05 08:31:40;;;;;;;12.82;6.22;;;;;;;;;;5015758;28;88920;-74
2022/04/05 08:34:11;;;;;;;13.93;6.03;;;;;;;;;;5012620;28;89819;-74
2022/04/05 08:36:37;;;;;;;14.57;5.75;;;;;;;;;;5004951;28;88051;-74
2022/04/05 08:39:03;;;;;;;15.93;5.80;;;;;;;;;;5007913;28;89756;-74
2022/04/05 08:41:35;;;;;;;20.15;6.00;;;;;;;;;;5007253;28;87635;-72
2022/04/05 08:44:01;;;;;;;16.00;5.90;;;;;;;;;;5011559;28;88400;-74
2022/04/05 08:46:29;;;;;;;10.32;5.38;;;;;;;;;;5001049;28;90085;-74
2022/04/05 08:48:55;;;;;;;9.55;5.57;;;;;;;;;;5007812;28;88944;-74
2022/04/05 08:51:22;;;;;;;14.40;5.18;;;;;;;;;;4996080;28;89844;-74
2022/04/05 08:53:48;;;;;;;8.48;5.18;;;;;;;;;;4995524;28;89364;-71
2022/04/05 08:56:16;;;;;;;13.13;5.13;;;;;;;;;;4995926;28;90442;-73
2022/04/05 08:58:42;;;;;;;6.00;3.53;;;;;;;;;;5018472;28;88503;-74
2022/04/05 09:01:10;;;;;;;13.38;5.63;;;;;;;;;;4995253;28;88631;-74
2022/04/05 09:03:36;;;;;;;16.10;5.78;;;;;;;;;;5007962;28;89617;-74
2022/04/05 09:06:26;;;;;;;11.77;5.65;;;;;;;;;;5001653;28;89003;-74
2022/04/05 09:09:06;;;;;;;6.32;4.90;;;;;;;;;;4986039;28;88990;-74
2022/04/05 09:11:33;;;;;;;10.57;4.88;;;;;;;;;;4994834;28;88597;-74
2022/04/05 09:14:00;;;;;;;6.28;5.10;;;;;;;;;;5012503;28;91783;-74
2022/04/05 09:16:34;;;;;;;8.27;4.60;;;;;;;;;;5013260;28;88717;-73
2022/04/05 09:19:08;;;;;;;10.65;5.45;;;;;;;;;;5015694;28;89664;-73
2022/04/05 09:21:51;;;;;;;6.45;5.47;;;;;;;;;;5016927;28;89207;-73
2022/04/05 09:24:18;;;;;;;8.38;4.88;;;;;;;;;;5015121;28;88684;-73
2022/04/05 09:26:45;;;;;;;9.20;5.50;;;;;;;;;;5013932;28;89177;-73
2022/04/05 09:29:11;;;;;;;9.02;6.35;;;;;;;;;;5013280;28;89049;-73
2022/04/05 09:31:50;;;;;;;10.27;6.25;;;;;;;;;;4984473;28;88523;-73
2022/04/05 09:34:19;;;;;;;11.35;5.38;;;;;;;;;;4977991;28;89780;-73
2022/04/05 09:36:48;;;;;;;9.23;5.43;;;;;;;;;;5014694;28;88036;-73
2022/04/05 09:39:17;;;;;;;11.40;5.88;;;;;;;;;;5006571;28;91995;-73
2022/04/05 09:41:44;;;;;;;9.13;6.45;;;;;;;;;;5014638;28;88734;-73
2022/04/05 09:44:10;;;;;;;11.30;6.50;;;;;;;;;;5016024;28;88137;-73
2022/04/05 09:46:39;;;;;;;14.15;6.25;;;;;;;;;;5015276;28;89552;-73
2022/04/05 09:49:09;;;;;;;12.15;6.60;;;;;;;;;;5016029;28;88650;-74
2022/04/05 09:51:37;;;;;;;9.13;4.85;;;;;;;;;;4977981;28;89300;-73
2022/04/05 09:54:04;;;;;;;10.70;6.70;;;;;;;;;;4981465;28;88999;-73
2022/04/05 09:56:32;;;;;;;10.38;5.90;;;;;;;;;;5018936;28;88784;-73
2022/04/05 09:59:04;;;;;;;10.10;6.22;;;;;;;;;;5013150;28;88826;-71
2022/04/05 10:01:32;;;;;;;13.65;5.80;;;;;;;;;;4997949;28;89607;-73
2022/04/05 10:04:00;;;;;;;8.95;5.60;;;;;;;;;;5012996;28;88750;-73
2022/04/05 10:06:28;;;;;;;12.27;6.30;;;;;;;;;;5017876;28;89840;-73
2022/04/05 10:08:55;;;;;;;20.48;7.75;;;;;;;;;;5013060;28;89489;-74
2022/04/05 10:11:26;;;;;;;14.65;7.03;;;;;;;;;;5018010;28;88369;-74
2022/04/05 10:13:53;;;;;;;12.02;6.95;;;;;;;;;;5015926;28;89742;-73
2022/04/05 10:16:21;;;;;;;14.70;7.82;;;;;;;;;;5018333;28;88035;-74
2022/04/05 10:19:05;;;;;;;12.05;7.57;;;;;;;;;;5013260;28;88290;-74
2022/04/05 10:21:35;;;;;;;11.40;7.55;;;;;;;;;;5016153;28;89467;-74
2022/04/05 10:24:06;;;;;;;9.00;6.05;;;;;;;;;;5018351;28;88556;-74
2022/04/05 10:26:35;;;;;;;14.95;6.35;;;;;;;;;;5014804;28;89534;-74
2022/04/05 10:29:04;;;;;;;6.40;5.80;;;;;;;;;;5011231;28;88950;-74
2022/04/05 10:31:40;;;;;;;9.75;6.35;;;;;;;;;;5003211;28;90594;-74
2022/04/05 10:34:06;;;;;;;7.78;5.20;;;;;;;;;;4987351;28;90216;-73
2022/04/05 10:36:33;;;;;;;11.43;5.78;;;;;;;;;;5011138;28;88751;-72
2022/04/05 10:39:18;;;;;;;7.22;4.90;;;;;;;;;;5007889;28;89531;-73
2022/04/05 10:42:24;;;;;;;7.75;5.43;;;;;;;;;;4996611;28;89713;-73
2022/04/05 10:45:05;;;;;;;10.00;6.20;;;;;;;;;;4983939;28;89453;-72
2022/04/05 10:47:32;;;;;;;13.23;5.25;;;;;;;;;;4974653;28;88932;-73
2022/04/05 10:50:18;;;;;;;13.32;5.97;;;;;;;;;;5003866;28;90482;-73
2022/04/05 10:52:46;;;;;;;8.10;5.22;;;;;;;;;;5015630;28;89605;-72
2022/04/05 10:55:12;;;;;;;8.93;5.63;;;;;;;;;;4988058;28;90551;-72
2022/04/05 10:57:39;;;;;;;11.35;6.20;;;;;;;;;;5012351;28;90065;-73
2022/04/05 11:00:09;;;;;;;10.52;6.00;;;;;;;;;;4995905;28;89772;-72
2022/04/05 11:03:06;;;;;;;5.43;4.95;;;;;;;;;;4977788;28;89611;-72
2022/04/05 11:05:42;;;;;;;8.63;5.85;;;;;;;;;;4981147;28;88648;-72
2022/04/05 11:08:13;;;;;;;11.80;5.28;;;;;;;;;;4978165;28;90205;-73
2022/04/05 11:10:39;;;;;;;12.70;5.50;;;;;;;;;;4990744;28;88706;-73
2022/04/05 11:13:09;;;;;;;12.70;5.05;;;;;;;;;;5016785;28;88798;-73
2022/04/05 11:15:48;;;;;;;6.30;5.22;;;;;;;;;;5016810;28;89552;-73
2022/04/05 11:18:16;;;;;;;13.85;6.07;;;;;;;;;;5012552;28;88200;-73
2022/04/05 11:20:44;;;;;;;8.23;4.85;;;;;;;;;;5016604;28;88764;-73
2022/04/05 11:23:11;;;;;;;11.38;5.35;;;;;;;;;;5013160;28;88050;-74
2022/04/05 11:25:37;;;;;;;7.75;4.70;;;;;;;;;;5006460;28;88952;-74
2022/04/05 11:28:14;;;;;;;9.98;4.72;;;;;;;;;;4996183;28;89760;-73
2022/04/05 11:30:49;;;;;;;8.30;4.82;;;;;;;;;;4996375;28;90222;-74
2022/04/05 11:33:20;;;;;;;8.75;4.53;;;;;;;;;;5005947;28;90099;-73
2022/04/05 11:35:57;;;;;;;8.82;4.88;;;;;;;;;;5011372;28;89577;-73
2022/04/05 11:38:26;;;;;;;7.90;4.70;;;;;;;;;;4985328;28;87920;-73
2022/04/05 11:40:55;;;;;;;7.50;4.22;;;;;;;;;;4995631;28;88281;-73
2022/04/05 11:43:27;;;;;;;10.10;4.82;;;;;;;;;;5003665;28;89535;-72
2022/04/05 11:45:53;;;;;;;;;;;;;;;;;;4978340;28;88941;-72
2022/04/05 11:48:21;;;;;;;13.55;4.72;;;;;;;;;;5015166;28;119373;-72
2022/04/05 11:50:48;;;;;;;8.30;4.68;;;;;;;;;;5007477;28;88672;-72
2022/04/05 11:53:21;;;;;;;11.35;5.10;;;;;;;;;;4993391;28;89897;-72
2022/04/05 11:56:03;;;;;;;7.50;4.82;;;;;;;;;;4993024;28;90004;-73
2022/04/05 11:58:30;;;;;;;7.22;5.18;;;;;;;;;;4990287;28;89926;-72
2022/04/05 12:01:00;;;;;;;8.10;4.35;;;;;;;;;;4992133;28;88653;-72
2022/04/05 12:03:26;;;;;;;11.57;5.40;;;;;;;;;;4993961;28;89194;-72
2022/04/05 12:05:53;;;;;;;9.23;5.10;;;;;;;;;;4995910;28;89622;-73
2022/04/05 12:08:19;;;;;;;5.22;4.72;;;;;;;;;;5000718;28;89562;-73
2022/04/05 12:10:46;;;;;;;9.60;5.00;;;;;;;;;;5005396;28;91112;-73
2022/04/05 12:13:12;;;;;;;6.00;4.30;;;;;;;;;;4996205;28;88345;-73
2022/04/05 12:15:38;;;;;;;8.25;4.75;;;;;;;;;;5008582;28;89984;-73
2022/04/05 12:18:18;;;;;;;7.60;5.28;;;;;;;;;;4999442;28;90239;-73
2022/04/05 12:20:54;;;;;;;6.72;5.38;;;;;;;;;;4997808;28;89510;-73
2022/04/05 12:23:20;;;;;;;10.20;4.78;;;;;;;;;;4995979;28;89759;-73
2022/04/05 12:26:06;;;;;;;5.47;4.90;;;;;;;;;;4998953;28;90102;-73
2022/04/05 12:28:33;;;;;;;8.50;5.20;;;;;;;;;;4986530;28;89042;-72
2022/04/05 12:31:20;;;;;;;9.15;4.95;;;;;;;;;;5003128;28;90152;-73
2022/04/05 12:33:54;;;;;;;8.90;5.13;;;;;;;;;;4995959;28;88505;-73
2022/04/05 12:36:21;;;;;;;8.90;5.38;;;;;;;;;;4990526;28;91647;-73
2022/04/05 12:38:48;;;;;;;5.55;5.03;;;;;;;;;;4988513;28;89025;-74
2022/04/05 12:41:18;;;;;;;7.32;5.93;;;;;;;;;;4993368;28;89076;-73
2022/04/05 12:44:01;;;;;;;5.53;5.03;;;;;;;;;;4987905;28;88918;-74
2022/04/05 12:46:34;;;;;;;8.07;5.50;;;;;;;;;;4976785;28;88755;-74
2022/04/05 12:49:14;;;;;;;5.50;4.97;;;;;;;;;;4979506;28;89279;-73
2022/04/05 12:52:09;;;;;;;5.53;4.32;;;;;;;;;;4988027;28;89823;-73
2022/04/05 12:54:37;;;;;;;5.40;4.90;;;;;;;;;;4990051;28;88965;-73
2022/04/05 12:57:22;;;;;;;8.48;5.50;;;;;;;;;;4993444;28;90240;-73
2022/04/05 12:59:49;;;;;;;6.80;5.30;;;;;;;;;;4995723;28;90201;-74
2022/04/05 13:02:20;;;;;;;6.03;5.38;;;;;;;;;;4981363;28;92037;-73
2022/04/05 13:04:46;;;;;;;6.88;5.90;;;;;;;;;;4991212;28;90681;-73
2022/04/05 13:07:13;;;;;;;6.47;5.30;;;;;;;;;;4990135;28;88808;-73
2022/04/05 13:09:40;;;;;;;7.45;5.30;;;;;;;;;;4984521;28;89447;-73
2022/04/05 13:12:07;;;;;;;6.30;5.18;;;;;;;;;;4999147;28;89387;-73
2022/04/05 13:14:33;;;;;;;5.15;4.75;;;;;;;;;;4990301;28;88763;-74
2022/04/05 13:17:00;;;;;;;7.15;5.50;;;;;;;;;;5012372;28;88764;-74
2022/04/05 13:19:26;;;;;;;8.60;5.35;;;;;;;;;;5004435;28;87942;-73
2022/04/05 13:21:54;;;;;;;7.50;5.75;;;;;;;;;;4997570;28;88217;-73
2022/04/05 13:24:22;;;;;;;10.35;5.82;;;;;;;;;;4998961;28;89552;-73
2022/04/05 13:26:49;;;;;;;8.88;6.30;;;;;;;;;;4993538;28;90674;-73
2022/04/05 13:29:17;;;;;;;7.97;6.07;;;;;;;;;;4996308;28;90910;-73
2022/04/05 13:31:45;;;;;;;6.78;6.10;;;;;;;;;;4998660;28;89662;-73
2022/04/05 13:34:16;;;;;;;10.52;7.03;;;;;;;;;;4994867;28;90048;-73
2022/04/05 13:36:42;;;;;;;7.38;6.72;;;;;;;;;;4992098;28;89742;-73
2022/04/05 13:39:09;;;;;;;5.82;5.20;;;;;;;;;;4997149;28;91173;-73
2022/04/05 13:41:36;;;;;;;8.60;7.47;;;;;;;;;;4995404;28;89498;-73
2022/04/05 13:44:03;;;;;;;7.10;6.40;;;;;;;;;;4994943;28;90412;-73
2022/04/05 13:46:31;;;;;;;13.85;7.75;;;;;;;;;;4989368;28;90041;-73
2022/04/05 13:48:58;;;;;;;9.70;7.47;;;;;;;;;;4992473;28;89923;-73
2022/04/05 13:51:26;;;;;;;8.95;6.47;;;;;;;;;;4991358;28;90554;-73
2022/04/05 13:54:06;;;;;;;8.20;7.18;;;;;;;;;;4994974;28;89621;-73
2022/04/05 13:56:33;;;;;;;11.82;6.90;;;;;;;;;;4993793;28;88792;-73
2022/04/05 13:59:00;;;;;;;7.40;6.80;;;;;;;;;;4995585;28;89829;-73
2022/04/05 14:01:27;;;;;;;13.82;6.28;;;;;;;;;;4999509;28;89481;-73
2022/04/05 14:03:53;;;;;;;12.23;6.90;;;;;;;;;;4996603;28;88736;-73
2022/04/05 14:06:20;;;;;;;7.15;6.55;;;;;;;;;;4994761;28;89466;-73
2022/04/05 14:08:47;;;;;;;7.97;6.97;;;;;;;;;;4997632;28;88923;-73
2022/04/05 14:11:13;;;;;;;6.30;5.70;;;;;;;;;;5002443;28;90381;-73
2022/04/05 14:13:55;;;;;;;7.78;7.05;;;;;;;;;;4995793;28;88201;-73
2022/04/05 14:16:21;;;;;;;10.85;7.13;;;;;;;;;;4993661;28;90099;-73
2022/04/05 14:18:48;;;;;;;7.55;6.82;;;;;;;;;;4994642;28;90189;-73
2022/04/05 14:21:32;;;;;;;10.18;6.95;;;;;;;;;;4997566;28;88555;-73
2022/04/05 14:23:59;;;;;;;13.07;7.70;;;;;;;;;;4998164;28;89651;-73
2022/04/05 14:26:25;;;;;;;7.38;6.68;;;;;;;;;;4982443;28;89519;-73
2022/04/05 14:28:51;;;;;;;6.97;4.95;;;;;;;;;;4998076;28;89704;-73
2022/04/05 14:31:18;;;;;;;7.75;6.65;;;;;;;;;;4996508;28;89597;-73
2022/04/05 14:33:44;;;;;;;9.07;4.88;;;;;;;;;;4992172;28;87880;-73
2022/04/05 14:36:10;;;;;;;7.95;6.20;;;;;;;;;;4990180;28;89686;-73
2022/04/05 14:38:37;;;;;;;7.95;5.80;;;;;;;;;;5001059;28;89884;-73
2022/04/05 14:41:06;;;;;;;7.03;5.95;;;;;;;;;;4997924;28;88861;-73
2022/04/05 14:43:33;;;;;;;9.70;6.82;;;;;;;;;;4996348;28;90607;-75